Time;durP1;ratioP1;P1;durP2;ratioP2;P2;SDS_P1;SDS_P2;PMS_P1;PMS_P2;Temp;Humidity;BMP_temperature;BMP_pressure;BME280_temperature;BME280_humidity;BME280_pressure;Samples;Min_cycle;Max_cycle;Signal;HPM_P1;HPM_P2
2023/11/05 00:01:51;;;;;;;9.00;3.13;;;;;;;18.60;85.50;96996.50;5022643;28;20040;-41
2023/11/05 00:04:17;;;;;;;6.80;2.83;;;;;;;18.58;85.65;96999.63;5019686;28;20026;-41
2023/11/05 00:06:43;;;;;;;12.73;3.10;;;;;;;18.58;85.91;97001.59;5023008;28;20120;-41
2023/11/05 00:09:08;;;;;;;10.48;3.17;;;;;;;18.55;85.84;96986.69;5008986;28;20394;-41
2023/11/05 00:11:35;;;;;;;9.23;2.97;;;;;;;18.55;85.93;96996.84;5020943;28;20028;-41
2023/11/05 00:14:01;;;;;;;6.90;2.80;;;;;;;18.54;85.81;96987.84;5026257;28;20039;-41
2023/11/05 00:16:26;;;;;;;9.50;2.90;;;;;;;18.52;86.08;96984.69;5028931;28;20033;-41
2023/11/05 00:18:52;;;;;;;10.32;3.00;;;;;;;18.50;86.06;96975.25;5022766;28;20393;-40
2023/11/05 00:21:17;;;;;;;9.57;3.28;;;;;;;18.49;85.83;96973.66;5025972;28;20381;-45
2023/11/05 00:23:42;;;;;;;9.85;3.38;;;;;;;18.48;86.14;96970.13;5024719;28;20014;-45
2023/11/05 00:26:08;;;;;;;10.82;3.33;;;;;;;18.47;85.99;96973.22;5028415;28;20029;-45
2023/11/05 00:28:33;;;;;;;9.23;2.90;;;;;;;18.46;85.76;96980.69;5012905;28;20037;-44
2023/11/05 00:30:59;;;;;;;7.95;3.00;;;;;;;18.44;85.97;96974.78;5018899;28;20445;-41
2023/11/05 00:33:24;;;;;;;9.43;3.22;;;;;;;18.42;86.10;96963.41;5019158;28;20030;-41
2023/11/05 00:35:50;;;;;;;7.65;2.70;;;;;;;18.41;85.75;96961.81;5020214;28;20032;-41
2023/11/05 00:38:15;;;;;;;9.02;2.90;;;;;;;18.40;85.79;96962.97;5020770;28;20075;-40
2023/11/05 00:40:41;;;;;;;8.48;2.80;;;;;;;18.38;85.98;96957.88;5021607;28;20036;-41
2023/11/05 00:43:06;;;;;;;11.88;2.80;;;;;;;18.36;86.16;96954.72;5021508;28;20063;-40
2023/11/05 00:45:31;;;;;;;9.20;2.45;;;;;;;18.36;86.00;96956.69;5025139;28;20037;-41
2023/11/05 00:47:57;;;;;;;6.40;2.55;;;;;;;18.34;86.07;96954.28;5019181;28;20036;-41
2023/11/05 00:50:23;;;;;;;8.77;2.80;;;;;;;18.33;86.56;96950.00;5018454;28;20136;-41
2023/11/05 00:52:48;;;;;;;10.18;2.88;;;;;;;18.32;86.29;96953.09;5025344;28;20068;-41
2023/11/05 00:55:14;;;;;;;7.53;2.50;;;;;;;18.32;86.38;96961.31;5022566;28;20112;-45
2023/11/05 00:57:40;;;;;;;7.13;2.63;;;;;;;18.30;86.46;96953.47;5018729;28;20081;-40
2023/11/05 01:00:08;;;;;;;8.57;2.83;;;;;;;18.30;86.65;96953.47;5009147;28;20034;-41
2023/11/05 01:02:35;;;;;;;8.93;2.92;;;;;;;18.28;86.54;96955.78;5013242;28;20117;-43
2023/11/05 01:05:01;;;;;;;7.57;2.25;;;;;;;18.28;86.81;96961.25;5023966;28;20409;-46
2023/11/05 01:07:26;;;;;;;8.40;2.70;;;;;;;18.28;87.03;96961.25;5020260;28;20036;-41
2023/11/05 01:09:52;;;;;;;10.68;2.65;;;;;;;18.25;86.96;96951.84;5014829;28;20036;-41
2023/11/05 01:12:17;;;;;;;9.75;2.70;;;;;;;18.25;86.95;96954.56;5024078;28;20061;-41
2023/11/05 01:14:42;;;;;;;8.18;2.80;;;;;;;18.25;87.39;96960.06;5020931;28;20025;-40
2023/11/05 01:17:12;;;;;;;10.13;3.15;;;;;;;18.25;87.38;96951.84;5023251;28;20026;-41
2023/11/05 01:19:38;;;;;;;8.10;2.88;;;;;;;18.22;87.06;96947.13;5018813;28;20488;-41
2023/11/05 01:22:04;;;;;;;11.00;3.38;;;;;;;18.23;87.42;96947.88;5020389;28;20114;-44
2023/11/05 01:24:29;;;;;;;11.75;3.28;;;;;;;18.22;87.72;96952.59;5021562;28;20087;-44
2023/11/05 01:26:54;;;;;;;9.95;3.15;;;;;;;18.22;87.77;96943.56;5025883;28;20572;-45
2023/11/05 01:29:20;;;;;;;9.57;2.80;;;;;;;18.21;87.38;96940.06;5001413;28;20045;-41
2023/11/05 01:31:45;;;;;;;10.48;2.70;;;;;;;18.21;87.55;96940.06;5023326;28;20044;-44
2023/11/05 01:34:11;;;;;;;8.32;2.83;;;;;;;18.20;87.46;96932.22;5020793;28;20052;-41
2023/11/05 01:36:36;;;;;;;8.73;2.70;;;;;;;18.19;87.55;96934.16;5029088;28;20036;-41
2023/11/05 01:39:02;;;;;;;9.38;2.50;;;;;;;18.19;87.75;96934.16;5027114;28;20045;-41
2023/11/05 01:41:27;;;;;;;11.38;2.75;;;;;;;18.19;87.87;96936.88;5029525;28;20033;-41
2023/11/05 01:43:53;;;;;;;9.40;2.63;;;;;;;18.18;87.81;96934.53;5029734;28;20083;-40
2023/11/05 01:46:18;;;;;;;7.40;2.63;;;;;;;18.18;87.97;96934.53;5028527;28;20018;-45
2023/11/05 01:48:44;;;;;;;10.13;2.90;;;;;;;18.16;88.03;96937.66;5011210;28;20048;-45
2023/11/05 01:51:13;;;;;;;8.18;2.70;;;;;;;18.17;87.97;96943.91;5031311;28;20132;-45
2023/11/05 01:53:39;;;;;;;8.80;2.50;;;;;;;18.17;88.18;96941.16;5024227;28;20613;-45
2023/11/05 01:56:05;;;;;;;10.98;3.25;;;;;;;18.16;88.27;96940.38;5019251;28;20065;-44
2023/11/05 01:58:31;;;;;;;11.38;3.17;;;;;;;18.15;88.27;96935.25;5027663;28;20053;-44
2023/11/05 02:00:56;;;;;;;6.18;2.65;;;;;;;18.14;88.03;96945.44;5027468;28;20037;-44
2023/11/05 02:03:22;;;;;;;10.25;2.92;;;;;;;18.15;88.28;96938.00;5024691;28;20111;-40
2023/11/05 02:05:47;;;;;;;9.23;2.85;;;;;;;18.15;88.35;96938.00;5021613;28;20025;-41
2023/11/05 02:08:13;;;;;;;11.70;2.95;;;;;;;18.12;88.22;96934.03;5013718;28;20036;-41
2023/11/05 02:10:38;;;;;;;7.30;2.55;;;;;;;18.12;88.30;96932.13;5017781;28;20025;-41
2023/11/05 02:13:04;;;;;;;6.63;2.30;;;;;;;18.11;88.27;96936.00;5016408;28;20025;-46
2023/11/05 02:15:29;;;;;;;9.35;3.00;;;;;;;18.11;88.59;96930.53;5015558;28;20033;-45
2023/11/05 02:17:55;;;;;;;8.23;3.08;;;;;;;18.10;88.52;96939.91;5017165;28;20030;-41
2023/11/05 02:20:21;;;;;;;7.10;2.20;;;;;;;18.10;88.78;96928.94;5025676;28;20030;-40
2023/11/05 02:22:47;;;;;;;6.90;2.25;;;;;;;18.11;88.87;96937.94;5018695;28;20033;-39
2023/11/05 02:25:18;;;;;;;7.57;2.40;;;;;;;18.10;88.77;96933.66;5023562;28;20057;-41
2023/11/05 02:27:45;;;;;;;7.53;2.58;;;;;;;18.09;88.84;96932.06;5021904;28;20441;-40
2023/11/05 02:30:11;;;;;;;7.13;2.50;;;;;;;18.09;88.99;96929.31;5019159;28;20053;-40
2023/11/05 02:32:36;;;;;;;7.38;2.45;;;;;;;18.09;88.90;96929.31;5007014;28;20033;-44
2023/11/05 02:35:02;;;;;;;6.55;2.63;;;;;;;18.07;88.93;96939.84;5034328;28;20052;-45
2023/11/05 02:37:27;;;;;;;6.80;2.60;;;;;;;18.07;89.24;96929.69;5029850;28;20026;-46
2023/11/05 02:39:53;;;;;;;5.50;2.33;;;;;;;18.08;89.22;96933.22;5026372;28;20033;-45
2023/11/05 02:42:18;;;;;;;8.07;2.45;;;;;;;18.06;89.15;96921.84;5020155;28;20030;-40
2023/11/05 02:44:43;;;;;;;7.28;2.50;;;;;;;18.07;89.14;96926.16;5028403;28;20109;-40
2023/11/05 02:47:09;;;;;;;7.80;2.42;;;;;;;18.06;89.46;96924.56;5022219;28;20502;-41
2023/11/05 02:49:34;;;;;;;7.15;2.67;;;;;;;18.06;89.22;96925.38;5017984;28;20109;-40
2023/11/05 02:51:59;;;;;;;5.85;2.20;;;;;;;18.06;89.53;96922.63;5021397;28;20040;-40
2023/11/05 02:54:27;;;;;;;6.38;2.33;;;;;;;18.04;89.40;96914.00;5027434;28;20029;-40
2023/11/05 02:56:52;;;;;;;7.03;2.42;;;;;;;18.05;89.35;96918.31;5023590;28;20021;-40
2023/11/05 02:59:22;;;;;;;8.00;2.67;;;;;;;18.05;89.71;96920.25;5014442;28;20485;-41
2023/11/05 03:01:47;;;;;;;5.28;2.45;;;;;;;18.05;89.56;96920.25;5023198;28;20501;-40
2023/11/05 03:04:12;;;;;;;9.30;2.40;;;;;;;18.05;89.62;96914.78;5021572;28;20116;-40
2023/11/05 03:06:38;;;;;;;7.97;2.63;;;;;;;18.04;89.72;96908.50;5018364;28;20029;-41
2023/11/05 03:09:03;;;;;;;6.72;2.40;;;;;;;18.04;89.57;96916.72;5024475;28;20530;-40
2023/11/05 03:11:28;;;;;;;7.38;2.17;;;;;;;18.04;89.65;96918.69;5022973;28;20026;-41
2023/11/05 03:13:54;;;;;;;5.10;2.03;;;;;;;18.03;89.86;96919.84;5032185;28;20029;-44
2023/11/05 03:16:19;;;;;;;5.90;2.33;;;;;;;18.04;89.81;96918.69;5019473;28;20492;-41
2023/11/05 03:18:44;;;;;;;5.18;2.00;;;;;;;18.02;90.14;96910.81;5021096;28;20113;-40
2023/11/05 03:21:15;;;;;;;6.05;2.25;;;;;;;18.02;90.09;96915.53;5014443;28;20030;-40
2023/11/05 03:23:40;;;;;;;5.50;2.05;;;;;;;18.02;90.00;96912.78;5015396;28;20508;-41
2023/11/05 03:26:06;;;;;;;5.20;1.90;;;;;;;18.01;90.38;96909.25;5015427;28;20033;-45
2023/11/05 03:28:31;;;;;;;4.50;1.92;;;;;;;18.01;90.46;96905.72;5020855;28;20391;-41
2023/11/05 03:30:56;;;;;;;6.70;2.47;;;;;;;18.01;90.50;96916.69;5021266;28;20029;-41
2023/11/05 03:33:22;;;;;;;5.22;2.03;;;;;;;17.98;90.33;96909.19;5022704;28;20151;-46
2023/11/05 03:35:48;;;;;;;6.88;1.98;;;;;;;18.00;90.59;96906.88;5023944;28;20040;-44
2023/11/05 03:38:14;;;;;;;5.63;2.25;;;;;;;18.00;90.49;96910.44;5010628;28;20532;-45
2023/11/05 03:40:39;;;;;;;4.57;1.90;;;;;;;17.99;90.57;96919.00;5013954;28;20026;-44
2023/11/05 03:43:04;;;;;;;5.80;2.63;;;;;;;18.00;90.81;96915.09;5018423;28;20629;-45
2023/11/05 03:45:30;;;;;;;6.68;2.22;;;;;;;17.99;90.63;96922.53;5021648;28;20072;-45
2023/11/05 03:47:55;;;;;;;4.97;2.00;;;;;;;18.00;90.61;96926.06;5018837;28;20029;-45
2023/11/05 03:50:20;;;;;;;5.95;2.38;;;;;;;17.99;90.88;96921.75;5023674;28;20021;-44
2023/11/05 03:52:46;;;;;;;7.32;2.58;;;;;;;17.98;91.12;96922.91;5021512;28;20526;-44
2023/11/05 03:55:11;;;;;;;5.28;2.20;;;;;;;17.97;90.80;96922.13;5019371;28;20030;-45
2023/11/05 03:57:37;;;;;;;4.50;1.92;;;;;;;17.96;91.10;96920.53;5023388;28;20061;-46
2023/11/05 04:00:05;;;;;;;3.72;1.83;;;;;;;17.96;91.00;96929.56;5026759;28;20387;-40
2023/11/05 04:02:30;;;;;;;4.72;1.88;;;;;;;17.96;91.02;96920.53;5024539;28;20029;-40
2023/11/05 04:04:56;;;;;;;4.45;1.83;;;;;;;17.96;91.03;96921.34;5014492;28;20038;-41
2023/11/05 04:07:22;;;;;;;5.35;1.67;;;;;;;17.95;91.32;96918.94;5022872;28;20033;-40
2023/11/05 04:09:48;;;;;;;4.63;1.90;;;;;;;17.96;91.20;96928.75;5019568;28;20025;-45
2023/11/05 04:12:13;;;;;;;4.80;2.08;;;;;;;17.95;91.39;96925.22;5015052;28;20749;-40
2023/11/05 04:14:38;;;;;;;8.05;2.10;;;;;;;17.94;91.44;96920.91;5038206;28;20128;-40
2023/11/05 04:17:04;;;;;;;5.00;1.90;;;;;;;17.94;91.70;96929.13;5021661;28;20040;-45
2023/11/05 04:19:29;;;;;;;4.30;1.92;;;;;;;17.94;91.59;96934.59;5012443;28;20034;-44
2023/11/05 04:21:55;;;;;;;4.05;1.92;;;;;;;17.94;91.39;96933.81;5015900;28;20021;-45
2023/11/05 04:24:20;;;;;;;5.35;2.03;;;;;;;17.93;91.53;96935.72;5021859;28;20037;-46
2023/11/05 04:26:46;;;;;;;4.05;1.80;;;;;;;17.94;91.63;96936.53;5024588;28;20099;-46
2023/11/05 04:29:11;;;;;;;3.95;1.77;;;;;;;17.93;91.65;96935.72;5023522;28;20026;-44
2023/11/05 04:31:37;;;;;;;4.97;1.92;;;;;;;17.92;91.82;96936.88;5028238;28;20017;-44
2023/11/05 04:34:04;;;;;;;4.90;2.20;;;;;;;17.92;91.68;96928.66;5023195;28;20034;-45
2023/11/05 04:36:30;;;;;;;4.38;1.73;;;;;;;17.92;91.85;96934.16;5022197;28;20417;-45
2023/11/05 04:38:55;;;;;;;3.08;1.77;;;;;;;17.90;91.69;96936.50;5022467;28;20017;-44
2023/11/05 04:41:21;;;;;;;4.38;1.85;;;;;;;17.92;91.95;96931.41;5025768;28;20366;-45
2023/11/05 04:43:47;;;;;;;5.28;1.90;;;;;;;17.92;91.79;96939.63;5021109;28;20057;-44
2023/11/05 04:46:13;;;;;;;5.97;1.67;;;;;;;17.91;91.67;96942.75;5014600;28;20061;-45
2023/11/05 04:48:38;;;;;;;4.65;2.20;;;;;;;17.90;91.91;96941.16;5027259;28;20025;-45
2023/11/05 04:51:09;;;;;;;6.05;1.92;;;;;;;17.90;91.91;96935.69;5024401;28;20037;-47
2023/11/05 04:53:35;;;;;;;4.70;1.60;;;;;;;17.90;91.72;96941.16;5017599;28;20044;-44
2023/11/05 04:56:00;;;;;;;3.30;1.63;;;;;;;17.90;91.86;96939.22;5025092;28;20037;-45
2023/11/05 04:58:26;;;;;;;4.65;1.80;;;;;;;17.88;92.07;96941.53;5022595;28;20081;-45
2023/11/05 05:00:52;;;;;;;5.40;1.95;;;;;;;17.89;91.89;96943.13;5024330;28;20021;-45
2023/11/05 05:03:17;;;;;;;5.82;1.80;;;;;;;17.89;92.02;96939.56;5022398;28;20032;-40
2023/11/05 05:05:43;;;;;;;4.60;2.28;;;;;;;17.90;91.87;96946.63;5016663;28;20021;-41
2023/11/05 05:08:09;;;;;;;4.60;2.00;;;;;;;17.88;92.09;96949.75;5015279;28;20029;-45
2023/11/05 05:10:34;;;;;;;4.47;1.92;;;;;;;17.90;92.17;96954.84;5023981;28;20044;-44
2023/11/05 05:13:00;;;;;;;4.90;2.20;;;;;;;17.88;91.90;96949.75;5026532;28;20033;-44
2023/11/05 05:15:25;;;;;;;3.17;1.90;;;;;;;17.88;92.13;96954.44;5014774;28;20029;-40
2023/11/05 05:17:50;;;;;;;3.45;2.08;;;;;;;17.88;92.19;96957.97;5021320;28;20128;-40
2023/11/05 05:20:16;;;;;;;4.53;1.67;;;;;;;17.87;92.16;96959.13;5020515;28;20153;-39
2023/11/05 05:22:41;;;;;;;4.50;1.85;;;;;;;17.87;92.33;96959.13;5024619;28;20037;-40
2023/11/05 05:25:08;;;;;;;6.10;2.55;;;;;;;17.87;92.40;96964.59;5024299;28;20033;-40
2023/11/05 05:27:33;;;;;;;4.75;1.95;;;;;;;17.87;92.09;96966.56;5022024;28;20030;-40
2023/11/05 05:29:59;;;;;;;3.53;1.80;;;;;;;17.87;92.44;96969.31;5024266;28;20032;-39
2023/11/05 05:32:25;;;;;;;4.85;1.80;;;;;;;17.86;92.25;96962.25;5025686;28;20492;-40
2023/11/05 05:34:50;;;;;;;5.40;1.85;;;;;;;17.86;92.17;96963.03;5017763;28;20033;-40
2023/11/05 05:37:15;;;;;;;3.35;1.60;;;;;;;17.86;92.21;96963.03;5021687;28;20536;-40
2023/11/05 05:39:41;;;;;;;3.92;1.92;;;;;;;17.87;92.36;96969.31;5019797;28;20018;-44
2023/11/05 05:42:06;;;;;;;7.43;2.25;;;;;;;17.86;92.52;96973.19;5021284;28;20056;-45
2023/11/05 05:44:32;;;;;;;10.10;2.00;;;;;;;17.85;92.54;96977.88;5018278;28;20398;-45
2023/11/05 05:46:57;;;;;;;6.53;1.95;;;;;;;17.86;92.50;96971.25;5014410;28;20021;-44
2023/11/05 05:49:23;;;;;;;3.22;1.60;;;;;;;17.85;92.47;96975.13;5014496;28;20030;-43
2023/11/05 05:51:48;;;;;;;4.00;1.70;;;;;;;17.85;92.59;96971.63;5017742;28;20557;-44
2023/11/05 05:54:13;;;;;;;4.35;1.70;;;;;;;17.85;92.66;96968.88;5018617;28;20084;-45
2023/11/05 05:56:39;;;;;;;4.50;1.77;;;;;;;17.85;92.79;96977.88;5026316;28;20022;-45
2023/11/05 05:59:04;;;;;;;4.35;1.90;;;;;;;17.85;92.58;96974.34;5021608;28;20046;-43
2023/11/05 06:01:30;;;;;;;5.45;1.95;;;;;;;17.84;92.66;96984.53;5014348;28;20528;-40
2023/11/05 06:03:55;;;;;;;5.55;2.42;;;;;;;17.84;93.00;96972.78;5024210;28;20033;-45
2023/11/05 06:06:20;;;;;;;5.70;2.03;;;;;;;17.84;93.02;96981.00;5020932;28;20026;-45
2023/11/05 06:08:46;;;;;;;4.18;1.90;;;;;;;17.84;92.84;96984.53;5018599;28;20048;-40
2023/11/05 06:11:11;;;;;;;3.70;1.80;;;;;;;17.83;93.33;96980.22;5024710;28;20295;-40
2023/11/05 06:13:37;;;;;;;6.35;1.70;;;;;;;17.84;93.16;96984.53;5023939;28;20033;-40
2023/11/05 06:16:03;;;;;;;5.75;2.00;;;;;;;17.83;93.17;96990.34;5023082;28;20029;-40
2023/11/05 06:18:29;;;;;;;4.30;1.90;;;;;;;17.83;93.37;96990.34;5027960;28;20036;-40
2023/11/05 06:20:55;;;;;;;4.97;2.28;;;;;;;17.82;93.37;96997.78;5020312;28;20667;-40
2023/11/05 06:23:20;;;;;;;4.30;1.80;;;;;;;17.83;93.20;96996.63;5025916;28;20052;-40
2023/11/05 06:25:46;;;;;;;4.07;1.77;;;;;;;17.83;93.13;96998.56;5024084;28;20332;-40
2023/11/05 06:28:11;;;;;;;5.10;1.90;;;;;;;17.83;93.26;97006.78;5027216;28;20032;-44
2023/11/05 06:30:36;;;;;;;5.05;1.90;;;;;;;17.83;93.56;97009.53;5026771;28;20485;-45
2023/11/05 06:33:02;;;;;;;3.53;1.52;;;;;;;17.81;93.46;97010.69;5026581;28;20071;-45
2023/11/05 06:35:27;;;;;;;3.85;1.70;;;;;;;17.82;93.23;97022.44;5022849;28;20026;-40
2023/11/05 06:37:53;;;;;;;4.60;1.70;;;;;;;17.81;93.52;97024.38;5023664;28;20032;-45
2023/11/05 06:40:18;;;;;;;6.63;2.20;;;;;;;17.83;93.32;97032.25;5022851;28;20040;-46
2023/11/05 06:42:43;;;;;;;4.05;1.90;;;;;;;17.83;93.40;97037.72;5017871;28;20026;-45
2023/11/05 06:45:09;;;;;;;5.45;1.80;;;;;;;17.81;93.54;97035.34;5023807;28;20029;-45
2023/11/05 06:47:34;;;;;;;2.92;1.60;;;;;;;17.84;93.78;97033.03;5029588;28;20024;-39
2023/11/05 06:50:00;;;;;;;3.53;1.80;;;;;;;17.88;93.76;97050.31;5023745;28;20064;-45
2023/11/05 06:52:26;;;;;;;5.28;1.95;;;;;;;17.94;93.43;97052.41;5021084;28;20456;-44
2023/11/05 06:54:52;;;;;;;3.67;1.77;;;;;;;18.01;93.18;97054.44;5026923;28;20029;-40
2023/11/05 06:57:17;;;;;;;5.93;2.08;;;;;;;18.09;92.96;97056.16;5024028;28;20596;-41
2023/11/05 06:59:43;;;;;;;4.38;1.70;;;;;;;18.19;92.51;97060.22;5025284;28;20033;-44
2023/11/05 07:02:12;;;;;;;4.70;1.70;;;;;;;18.30;92.30;97060.38;5019980;28;20382;-45
2023/11/05 07:04:38;;;;;;;5.10;1.80;;;;;;;18.41;91.99;97058.56;5024354;28;20551;-46
2023/11/05 07:07:05;;;;;;;2.90;1.52;;;;;;;18.53;91.62;97071.25;5018502;28;20029;-44
2023/11/05 07:09:30;;;;;;;5.18;1.90;;;;;;;18.68;91.19;97068.72;5020193;28;20080;-45
2023/11/05 07:11:56;;;;;;;4.70;1.70;;;;;;;18.82;91.07;97076.31;5015552;28;20057;-45
2023/11/05 07:14:21;;;;;;;4.22;1.83;;;;;;;18.95;90.38;97074.16;5026814;28;20033;-45
2023/11/05 07:16:46;;;;;;;4.65;1.80;;;;;;;19.06;89.81;97077.81;5022417;28;20131;-45
2023/11/05 07:19:12;;;;;;;4.25;2.00;;;;;;;19.19;89.36;97075.59;5014231;28;20108;-44
2023/11/05 07:21:37;;;;;;;3.30;1.80;;;;;;;19.32;89.34;97084.38;5019439;28;20483;-46
2023/11/05 07:24:03;;;;;;;3.70;1.60;;;;;;;19.44;88.78;97086.06;5026269;28;20778;-45
2023/11/05 07:26:28;;;;;;;3.05;1.80;;;;;;;19.54;88.34;97090.88;5024178;28;20021;-45
2023/11/05 07:28:55;;;;;;;13.15;2.00;;;;;;;19.66;88.08;97098.06;5025396;28;20026;-46
2023/11/05 07:31:21;;;;;;;4.53;1.77;;;;;;;19.76;87.85;97102.06;5024251;28;20532;-45
2023/11/05 07:33:47;;;;;;;3.20;1.77;;;;;;;19.85;87.54;97106.09;5019292;28;20030;-41
2023/11/05 07:36:13;;;;;;;4.38;1.95;;;;;;;19.90;87.35;97115.94;5027935;28;20546;-41
2023/11/05 07:38:39;;;;;;;4.90;1.98;;;;;;;19.93;86.82;97106.94;5022664;28;20101;-41
2023/11/05 07:41:05;;;;;;;4.13;2.03;;;;;;;19.95;86.73;97110.13;5023311;28;20112;-41
2023/11/05 07:43:31;;;;;;;6.40;2.15;;;;;;;19.97;87.02;97120.72;5016523;28;20494;-41
2023/11/05 07:45:57;;;;;;;6.70;2.00;;;;;;;19.99;86.82;97129.38;5023419;28;20018;-46
2023/11/05 07:48:22;;;;;;;3.55;1.70;;;;;;;20.01;86.68;97130.59;5022851;28;20072;-46
2023/11/05 07:50:50;;;;;;;4.40;2.08;;;;;;;20.04;86.53;97138.06;5028794;28;20486;-41
2023/11/05 07:53:16;;;;;;;4.72;2.05;;;;;;;20.02;86.59;97140.41;5030043;28;20381;-45
2023/11/05 07:55:41;;;;;;;3.88;1.90;;;;;;;20.00;86.45;97142.75;5022720;28;20405;-45
2023/11/05 07:58:07;;;;;;;5.13;1.88;;;;;;;19.99;86.73;97141.16;5021297;28;20497;-45
2023/11/05 08:00:33;;;;;;;4.80;1.88;;;;;;;19.97;86.85;97143.50;5019337;28;20037;-45
2023/11/05 08:03:00;;;;;;;4.18;2.05;;;;;;;19.95;86.46;97151.34;5022930;28;20087;-46
2023/11/05 08:05:25;;;;;;;5.95;2.05;;;;;;;19.93;86.55;97155.63;5015433;28;20040;-47
2023/11/05 08:07:50;;;;;;;5.35;2.03;;;;;;;19.90;86.85;97159.91;5023137;28;20017;-47
2023/11/05 08:10:17;;;;;;;4.15;1.95;;;;;;;19.88;86.86;97154.03;5025837;28;20485;-46
2023/11/05 08:12:44;;;;;;;4.00;2.00;;;;;;;19.84;87.01;97158.69;5016323;28;20032;-45
2023/11/05 08:15:09;;;;;;;3.88;1.88;;;;;;;19.82;87.21;97164.53;5025926;28;20031;-41
2023/11/05 08:17:35;;;;;;;6.05;2.05;;;;;;;19.81;87.52;97173.16;5021904;28;20034;-40
2023/11/05 08:20:00;;;;;;;6.00;2.20;;;;;;;19.78;87.50;97173.91;5025049;28;20464;-40
2023/11/05 08:22:26;;;;;;;5.68;1.90;;;;;;;19.76;87.37;97184.50;5023644;28;20033;-40
2023/11/05 08:24:52;;;;;;;3.58;1.92;;;;;;;19.72;87.59;97185.22;5026348;28;20040;-41
2023/11/05 08:27:17;;;;;;;4.80;2.13;;;;;;;19.70;87.35;97186.78;5020335;28;20028;-41
2023/11/05 08:29:45;;;;;;;3.83;2.00;;;;;;;19.66;87.47;97191.44;5025947;28;20017;-41
2023/11/05 08:32:11;;;;;;;5.85;2.10;;;;;;;19.62;87.74;97199.66;5022537;28;20025;-41
2023/11/05 08:34:36;;;;;;;4.35;2.10;;;;;;;19.58;87.81;97196.06;5018174;28;20043;-41
2023/11/05 08:37:02;;;;;;;6.38;2.35;;;;;;;19.54;87.99;97201.50;5019668;28;20021;-41
2023/11/05 08:39:30;;;;;;;5.97;2.20;;;;;;;19.50;88.05;97200.69;5023716;28;20080;-45
2023/11/05 08:41:56;;;;;;;4.55;2.10;;;;;;;19.49;88.65;97204.59;5022883;28;20029;-45
2023/11/05 08:44:22;;;;;;;4.38;2.17;;;;;;;19.46;88.74;97212.78;5025062;28;20036;-46
2023/11/05 08:46:48;;;;;;;5.82;2.30;;;;;;;19.42;88.98;97204.50;5019679;28;20025;-45
2023/11/05 08:49:13;;;;;;;6.60;2.13;;;;;;;19.40;88.86;97218.63;5018881;28;20021;-41
2023/11/05 08:51:39;;;;;;;4.00;1.73;;;;;;;19.39;88.94;97227.22;5025012;28;20040;-40
2023/11/05 08:54:05;;;;;;;4.70;2.00;;;;;;;19.37;89.21;97232.28;5026045;28;20033;-40
2023/11/05 08:56:30;;;;;;;5.13;2.28;;;;;;;19.35;89.19;97238.16;5025219;28;20254;-40
2023/11/05 08:58:55;;;;;;;5.53;2.15;;;;;;;19.32;89.24;97247.13;5011912;28;20374;-40
2023/11/05 09:01:22;;;;;;;4.10;1.83;;;;;;;19.31;89.20;97253.81;5022721;28;20099;-40
2023/11/05 09:03:48;;;;;;;5.28;1.98;;;;;;;19.30;89.25;97254.16;5020988;28;20029;-40
2023/11/05 09:06:13;;;;;;;6.47;2.30;;;;;;;19.28;89.43;97262.78;5017727;28;20116;-41
2023/11/05 09:08:39;;;;;;;7.40;2.20;;;;;;;19.27;89.50;97268.66;5016491;28;20021;-40
2023/11/05 09:11:08;;;;;;;3.38;1.88;;;;;;;19.22;89.71;97265.03;5022891;28;20033;-40
2023/11/05 09:13:34;;;;;;;5.25;2.08;;;;;;;19.24;89.59;97267.44;5024101;28;20884;-40
2023/11/05 09:16:01;;;;;;;5.50;2.10;;;;;;;19.21;89.84;97273.66;5019849;28;20053;-42
2023/11/05 09:18:26;;;;;;;5.30;1.90;;;;;;;19.19;89.55;97287.75;5017220;28;20386;-40
2023/11/05 09:20:52;;;;;;;6.85;1.95;;;;;;;19.19;89.83;97289.69;5010367;28;20040;-40
2023/11/05 09:23:18;;;;;;;4.25;2.00;;;;;;;19.17;89.66;97295.56;5013795;28;20042;-40
2023/11/05 09:25:43;;;;;;;5.43;2.33;;;;;;;19.16;89.84;97293.97;5016585;28;20026;-40
2023/11/05 09:28:08;;;;;;;5.47;2.20;;;;;;;19.14;90.14;97314.72;5022047;28;20477;-40
2023/11/05 09:30:34;;;;;;;6.05;2.10;;;;;;;19.12;90.00;97317.06;5018259;28;20160;-40
2023/11/05 09:33:00;;;;;;;9.77;3.00;;;;;;;19.08;89.96;97311.53;5022356;28;20101;-45
2023/11/05 09:35:25;;;;;;;5.40;1.85;;;;;;;19.07;90.05;97335.41;5021576;28;20021;-45
2023/11/05 09:37:50;;;;;;;6.00;2.03;;;;;;;19.04;90.03;97343.59;5019802;28;20486;-41
2023/11/05 09:40:16;;;;;;;3.78;2.00;;;;;;;19.01;90.29;97353.34;5018686;28;20044;-41
2023/11/05 09:42:54;;;;;;;4.88;1.83;;;;;;;18.98;90.19;97367.81;5021338;28;20030;-40
2023/11/05 09:45:20;;;;;;;5.00;1.70;;;;;;;18.98;90.31;97375.25;5019140;28;20073;-40
2023/11/05 09:47:45;;;;;;;7.10;1.90;;;;;;;18.96;90.69;97386.59;5020218;28;20021;-40
2023/11/05 09:50:12;;;;;;;5.65;1.90;;;;;;;18.94;90.65;97393.63;5013923;28;20359;-41
2023/11/05 09:52:41;;;;;;;3.50;1.98;;;;;;;18.92;91.02;97408.50;5028478;28;20117;-40
2023/11/05 09:55:08;;;;;;;4.20;2.03;;;;;;;18.90;90.79;97410.78;5016606;28;20040;-39
2023/11/05 09:57:33;;;;;;;6.63;2.00;;;;;;;18.89;90.83;97424.84;5016976;28;20050;-40
2023/11/05 09:59:59;;;;;;;6.15;1.90;;;;;;;18.89;91.17;97430.34;5020998;28;20474;-40
2023/11/05 10:02:24;;;;;;;5.60;1.98;;;;;;;18.87;91.41;97436.22;5021795;28;20021;-40
2023/11/05 10:04:49;;;;;;;5.10;1.90;;;;;;;18.86;90.78;97450.28;5024310;28;20065;-39
2023/11/05 10:07:15;;;;;;;6.03;1.90;;;;;;;18.85;91.35;97457.72;5016933;28;20036;-41
2023/11/05 10:09:41;;;;;;;6.72;1.80;;;;;;;18.84;91.72;97469.84;5023294;28;20100;-40
2023/11/05 10:12:09;;;;;;;3.90;1.95;;;;;;;18.85;91.41;97470.66;5027691;28;20481;-40
2023/11/05 10:14:34;;;;;;;3.15;1.80;;;;;;;18.86;91.29;97477.72;5017217;28;20462;-40
2023/11/05 10:17:00;;;;;;;5.88;2.00;;;;;;;18.89;91.31;97479.75;5016709;28;20033;-40
2023/11/05 10:19:26;;;;;;;5.95;2.30;;;;;;;18.90;91.41;97489.56;5014794;28;20026;-41
2023/11/05 10:21:52;;;;;;;5.60;1.80;;;;;;;18.93;91.49;97494.34;5016758;28;20111;-41
2023/11/05 10:24:18;;;;;;;5.43;2.03;;;;;;;18.96;91.07;97501.03;5014458;28;20067;-41
2023/11/05 10:26:48;;;;;;;5.45;2.10;;;;;;;18.98;91.21;97501.47;5028213;28;20044;-41
2023/11/05 10:29:14;;;;;;;4.40;1.73;;;;;;;19.00;90.97;97516.44;5024946;28;20417;-41
2023/11/05 10:31:40;;;;;;;5.72;1.95;;;;;;;19.02;91.26;97513.34;5025939;28;20025;-41
2023/11/05 10:34:06;;;;;;;4.20;1.90;;;;;;;19.03;91.24;97529.44;5022277;28;20099;-41
2023/11/05 10:36:31;;;;;;;5.00;1.65;;;;;;;19.04;91.27;97531.03;5023983;28;20492;-39
2023/11/05 10:38:59;;;;;;;3.08;1.80;;;;;;;19.06;91.05;97533.41;5024246;28;20060;-40
2023/11/05 10:41:26;;;;;;;3.90;1.63;;;;;;;19.07;91.13;97543.22;5023156;28;20030;-40
2023/11/05 10:43:52;;;;;;;3.90;1.73;;;;;;;19.08;91.05;97540.09;5018322;28;20018;-40
2023/11/05 10:46:19;;;;;;;4.72;1.80;;;;;;;19.09;90.83;97551.88;5026653;28;20071;-40
2023/11/05 10:48:45;;;;;;;3.33;1.50;;;;;;;19.11;90.78;97562.50;5024185;28;20428;-39
2023/11/05 10:51:12;;;;;;;3.90;1.77;;;;;;;19.11;90.96;97562.50;5034949;28;20033;-40
2023/11/05 10:53:38;;;;;;;4.10;2.00;;;;;;;19.11;90.61;97573.47;5015881;28;20395;-40
2023/11/05 10:56:29;;;;;;;6.05;1.83;;;;;;;19.12;90.71;97583.31;5026518;28;20578;-40
2023/11/05 10:58:57;;;;;;;3.70;1.60;;;;;;;19.13;90.52;97582.13;5019785;28;20474;-39
2023/11/05 11:01:28;;;;;;;4.18;2.00;;;;;;;19.11;90.73;97585.25;5017445;28;20033;-44
2023/11/05 11:04:03;;;;;;;3.97;1.67;;;;;;;19.11;90.58;97587.22;5021746;28;20061;-45
2023/11/05 11:06:28;;;;;;;5.40;1.70;;;;;;;19.11;90.76;97596.22;5022815;28;20497;-45
2023/11/05 11:08:56;;;;;;;5.65;1.90;;;;;;;19.11;90.32;97600.94;5019966;28;20025;-45
2023/11/05 11:11:22;;;;;;;3.70;1.75;;;;;;;19.11;90.64;97607.22;5022502;28;20510;-46
2023/11/05 11:13:51;;;;;;;5.78;2.08;;;;;;;19.08;90.45;97611.47;5012354;28;20068;-46
2023/11/05 11:16:37;;;;;;;3.95;1.90;;;;;;;19.07;90.16;97615.38;5018087;28;20302;-46
2023/11/05 11:19:13;;;;;;;5.90;2.30;;;;;;;19.07;90.23;97620.06;5013457;28;20044;-45
2023/11/05 11:21:49;;;;;;;3.97;1.92;;;;;;;19.06;90.27;97622.00;5015607;28;20475;-44
2023/11/05 11:24:28;;;;;;;5.03;1.80;;;;;;;19.04;90.55;97632.56;5017843;28;20037;-45
2023/11/05 11:26:57;;;;;;;4.80;1.98;;;;;;;19.03;90.10;97641.97;5018313;28;20037;-45